Time;durP1;ratioP1;P1;durP2;ratioP2;P2;SDS_P1;SDS_P2;PMS_P1;PMS_P2;Temp;Humidity;BMP_temperature;BMP_pressure;BME280_temperature;BME280_humidity;BME280_pressure;Samples;Min_cycle;Max_cycle;Signal;HPM_P1;HPM_P2
2022/09/01 00:00:50;;;;;;;14.73;7.40;;;27.20;99.90;;;;;;4212023;28;20044;-67
2022/09/01 00:02:55;;;;;;;10.60;7.25;;;27.30;99.90;;;;;;4212737;28;20543;-67
2022/09/01 00:05:00;;;;;;;10.20;6.85;;;27.30;99.90;;;;;;4212524;28;20410;-67
2022/09/01 00:07:08;;;;;;;9.55;6.72;;;27.20;99.90;;;;;;4212158;28;20059;-68
2022/09/01 00:09:16;;;;;;;10.13;6.43;;;27.20;99.90;;;;;;4212352;28;20044;-68
2022/09/01 00:11:21;;;;;;;12.57;6.72;;;27.20;99.90;;;;;;4212504;28;20449;-68
2022/09/01 00:13:26;;;;;;;12.48;7.20;;;27.20;99.90;;;;;;4212110;28;20094;-69
2022/09/01 00:15:33;;;;;;;11.27;7.00;;;27.30;99.90;;;;;;4212325;28;20059;-68
2022/09/01 00:17:38;;;;;;;14.75;7.90;;;27.20;99.90;;;;;;4212089;28;20047;-67
2022/09/01 00:19:45;;;;;;;8.43;6.82;;;27.30;99.90;;;;;;4226717;28;20101;-67
2022/09/01 00:21:51;;;;;;;14.10;7.35;;;27.30;99.90;;;;;;4212204;28;20054;-68
2022/09/01 00:23:55;;;;;;;13.52;8.20;;;27.40;99.90;;;;;;4210673;28;20076;-67
2022/09/01 00:26:02;;;;;;;13.45;8.25;;;27.40;99.90;;;;;;4202488;28;20666;-66
2022/09/01 00:28:08;;;;;;;11.52;7.25;;;27.30;99.90;;;;;;4195099;28;20539;-65
2022/09/01 00:30:13;;;;;;;12.07;6.00;;;27.30;99.90;;;;;;4195568;28;20080;-66
2022/09/01 00:32:19;;;;;;;9.60;6.78;;;27.30;99.90;;;;;;4194897;28;20517;-66
2022/09/01 00:34:27;;;;;;;11.15;5.75;;;27.40;99.90;;;;;;4194994;28;20693;-66
2022/09/01 00:36:32;;;;;;;6.45;5.68;;;27.40;99.90;;;;;;4194905;28;20047;-66
2022/09/01 00:38:38;;;;;;;12.65;6.10;;;27.40;99.90;;;;;;4196132;28;20055;-65
2022/09/01 00:40:45;;;;;;;7.20;6.03;;;27.40;99.90;;;;;;4209686;28;20040;-66
2022/09/01 00:42:52;;;;;;;9.00;5.85;;;27.50;99.90;;;;;;4195281;28;20037;-65
2022/09/01 00:44:59;;;;;;;7.00;5.60;;;27.50;99.90;;;;;;4193885;28;20048;-65
2022/09/01 00:47:06;;;;;;;10.60;6.07;;;27.50;99.90;;;;;;4195000;28;20044;-65
2022/09/01 00:49:26;;;;;;;9.00;5.53;;;27.50;99.90;;;;;;4194532;28;20056;-65
2022/09/01 00:51:38;;;;;;;8.45;5.53;;;27.60;99.90;;;;;;4194769;28;20044;-65
2022/09/01 00:53:45;;;;;;;7.85;5.10;;;27.70;99.90;;;;;;4194999;28;20060;-65
2022/09/01 00:55:49;;;;;;;8.88;4.80;;;27.70;99.90;;;;;;4194818;28;20036;-65
2022/09/01 00:57:57;;;;;;;7.65;4.97;;;27.80;99.90;;;;;;4200022;28;20040;-65
2022/09/01 01:00:06;;;;;;;7.43;5.28;;;27.90;99.90;;;;;;4208986;28;20067;-65
2022/09/01 01:02:11;;;;;;;8.50;5.05;;;27.90;99.90;;;;;;4193671;28;20133;-66
2022/09/01 01:04:16;;;;;;;8.75;5.72;;;28.00;99.90;;;;;;4210720;28;20048;-66
2022/09/01 01:06:26;;;;;;;9.15;5.22;;;28.10;99.90;;;;;;4211522;28;20044;-66
2022/09/01 01:08:36;;;;;;;6.35;5.32;;;28.10;99.90;;;;;;4210356;28;20131;-67
2022/09/01 01:10:43;;;;;;;9.18;4.60;;;28.00;99.90;;;;;;4211454;28;20491;-67
2022/09/01 01:12:50;;;;;;;6.47;4.68;;;28.00;99.90;;;;;;4211371;28;20044;-67
2022/09/01 01:14:55;;;;;;;6.43;4.63;;;27.90;99.90;;;;;;4211300;28;20109;-67
2022/09/01 01:17:02;;;;;;;22.05;6.15;;;28.10;99.90;;;;;;4211630;28;20124;-68
2022/09/01 01:24:22;;;;;;;5.97;3.40;;;28.30;99.90;;;;;;4209947;28;20503;-67
2022/09/01 01:26:27;;;;;;;5.38;3.63;;;28.20;99.90;;;;;;4197284;28;20088;-67
2022/09/01 01:28:38;;;;;;;5.65;3.83;;;28.10;99.90;;;;;;4193473;28;20052;-66
2022/09/01 01:30:52;;;;;;;4.78;3.85;;;28.00;99.90;;;;;;4194254;28;20677;-66
2022/09/01 01:32:57;;;;;;;5.40;4.47;;;28.00;99.90;;;;;;4197076;28;20495;-65
2022/09/01 01:35:05;;;;;;;7.30;5.22;;;28.20;99.90;;;;;;4192705;28;20103;-67
2022/09/01 01:37:13;;;;;;;6.90;5.32;;;28.20;99.90;;;;;;4197547;28;20049;-67
2022/09/01 01:39:24;;;;;;;9.50;4.82;;;28.30;99.90;;;;;;4216148;28;20035;-67
2022/09/01 01:41:30;;;;;;;10.02;5.55;;;28.40;99.90;;;;;;4210514;28;20433;-67
2022/09/01 01:43:40;;;;;;;8.88;5.30;;;28.40;99.90;;;;;;4226779;28;20059;-67
2022/09/01 01:45:47;;;;;;;9.50;5.03;;;28.50;99.90;;;;;;4226581;28;20484;-67
2022/09/01 01:47:53;;;;;;;9.15;5.07;;;28.40;99.90;;;;;;4209880;28;20498;-67
2022/09/01 01:50:03;;;;;;;6.70;4.68;;;28.40;99.90;;;;;;4226433;28;20050;-67
2022/09/01 01:52:07;;;;;;;8.52;5.70;;;28.40;99.90;;;;;;4209895;28;20051;-67
2022/09/01 01:54:14;;;;;;;8.13;4.57;;;28.30;99.90;;;;;;4209543;28;20499;-67
2022/09/01 01:56:24;;;;;;;9.88;5.30;;;28.50;99.90;;;;;;4226479;28;20046;-67
2022/09/01 01:58:29;;;;;;;7.30;4.40;;;28.50;99.90;;;;;;4226497;28;20044;-67
2022/09/01 02:00:34;;;;;;;7.57;3.88;;;28.60;99.90;;;;;;4226985;28;20043;-68
2022/09/01 02:02:51;;;;;;;6.38;3.63;;;28.70;99.90;;;;;;4229877;28;20510;-67
2022/09/01 02:04:55;;;;;;;6.43;3.55;;;28.80;99.90;;;;;;4212904;28;20040;-67
2022/09/01 02:07:00;;;;;;;7.45;3.30;;;28.80;99.90;;;;;;4212637;28;20041;-67
2022/09/01 02:09:10;;;;;;;5.90;2.95;;;28.80;99.90;;;;;;4212685;28;20055;-67
2022/09/01 02:11:16;;;;;;;5.90;3.13;;;29.00;99.90;;;;;;4229552;28;20689;-67
2022/09/01 02:13:29;;;;;;;6.30;3.42;;;29.10;99.90;;;;;;4212661;28;20040;-67
2022/09/01 02:15:43;;;;;;;4.68;3.10;;;29.10;99.90;;;;;;4177631;28;21134;-68
2022/09/01 02:17:47;;;;;;;4.05;2.30;;;29.20;99.90;;;;;;4212733;28;20048;-75
2022/09/01 02:19:56;;;;;;;6.57;2.50;;;29.10;99.90;;;;;;4212847;28;20040;-75
2022/09/01 02:22:04;;;;;;;6.00;2.88;;;29.10;99.90;;;;;;4197187;28;20064;-75
2022/09/01 02:24:10;;;;;;;4.32;2.40;;;29.10;99.90;;;;;;4217116;28;20027;-74
2022/09/01 02:26:16;;;;;;;3.40;2.05;;;29.20;99.90;;;;;;4202131;28;20041;-73
2022/09/01 02:28:27;;;;;;;3.13;1.75;;;29.30;99.90;;;;;;4196000;28;20060;-74
2022/09/01 02:30:32;;;;;;;5.82;2.40;;;29.40;99.90;;;;;;4196908;28;20052;-75
2022/09/01 02:32:37;;;;;;;6.15;2.40;;;29.40;99.90;;;;;;4195814;28;20518;-73
2022/09/01 02:34:48;;;;;;;6.18;2.15;;;29.40;99.90;;;;;;4161441;28;20133;-76
2022/09/01 02:36:55;;;;;;;4.30;2.28;;;29.50;99.90;;;;;;4196724;28;20048;-76
2022/09/01 02:39:00;;;;;;;4.40;2.35;;;29.50;99.90;;;;;;4201005;28;20036;-76
2022/09/01 02:41:12;;;;;;;4.75;2.20;;;29.50;99.90;;;;;;4229142;28;20039;-76
2022/09/01 02:43:19;;;;;;;5.30;2.50;;;29.50;99.90;;;;;;4212404;28;20048;-75
2022/09/01 02:45:26;;;;;;;4.50;2.50;;;29.40;99.90;;;;;;4229201;28;20058;-75
2022/09/01 02:47:34;;;;;;;4.18;2.60;;;29.40;99.90;;;;;;4213733;28;20512;-73
2022/09/01 02:49:41;;;;;;;4.90;2.45;;;29.60;99.90;;;;;;4213300;28;20127;-75
2022/09/01 02:51:52;;;;;;;5.57;3.30;;;29.70;99.90;;;;;;4212062;28;20094;-74
2022/09/01 02:53:57;;;;;;;4.65;2.92;;;29.70;99.90;;;;;;4212294;28;20072;-74
2022/09/01 02:56:03;;;;;;;4.82;2.70;;;29.70;99.90;;;;;;4228589;28;20040;-74
2022/09/01 02:58:15;;;;;;;3.92;2.50;;;29.80;99.90;;;;;;4213419;28;20592;-75
2022/09/01 03:00:27;;;;;;;3.65;2.83;;;29.60;99.90;;;;;;4210601;28;20063;-75
2022/09/01 03:02:34;;;;;;;6.60;3.00;;;29.70;99.90;;;;;;4212111;28;20140;-74
2022/09/01 03:04:39;;;;;;;5.45;3.30;;;29.80;99.90;;;;;;4212081;28;20127;-74
2022/09/01 03:06:49;;;;;;;5.97;2.97;;;30.00;99.90;;;;;;4228557;28;20071;-74
2022/09/01 03:08:57;;;;;;;4.80;3.05;;;30.20;99.90;;;;;;4195766;28;20127;-74
2022/09/01 03:11:02;;;;;;;5.60;3.00;;;30.10;99.90;;;;;;4196289;28;20043;-75
2022/09/01 03:13:12;;;;;;;7.07;2.78;;;30.00;99.90;;;;;;4195913;28;20525;-75
2022/09/01 03:15:16;;;;;;;4.65;3.08;;;30.00;99.90;;;;;;4195782;28;20052;-74
2022/09/01 03:17:21;;;;;;;5.97;2.72;;;30.10;99.90;;;;;;4194843;28;20051;-74
2022/09/01 03:19:38;;;;;;;3.60;2.88;;;30.20;99.90;;;;;;4190897;28;20053;-74
2022/09/01 03:21:44;;;;;;;3.45;2.88;;;30.30;99.90;;;;;;4211747;28;20036;-74
2022/09/01 03:23:51;;;;;;;6.22;2.97;;;30.40;99.90;;;;;;4211393;28;20105;-74
2022/09/01 03:26:00;;;;;;;4.00;2.78;;;30.40;99.90;;;;;;4194976;28;20131;-74
2022/09/01 03:28:05;;;;;;;4.30;2.85;;;30.40;99.90;;;;;;4212850;28;20560;-75
2022/09/01 03:30:14;;;;;;;4.57;2.92;;;30.50;99.90;;;;;;4194760;28;20076;-75
2022/09/01 03:32:24;;;;;;;4.15;3.08;;;30.60;99.90;;;;;;4191356;28;20037;-74
2022/09/01 03:34:33;;;;;;;5.68;3.05;;;30.70;99.90;;;;;;4220395;28;20048;-74
2022/09/01 03:36:38;;;;;;;4.15;2.63;;;30.60;99.90;;;;;;4210898;28;20047;-74
2022/09/01 03:38:47;;;;;;;2.92;2.60;;;30.60;99.90;;;;;;4145428;28;20486;-74
2022/09/01 03:41:00;;;;;;;3.45;2.67;;;30.60;99.90;;;;;;4215451;28;20056;-74
2022/09/01 03:43:08;;;;;;;3.20;2.40;;;30.70;99.90;;;;;;4208792;28;20044;-74
2022/09/01 03:45:14;;;;;;;2.40;2.20;;;30.80;99.90;;;;;;4211009;28;20648;-75
2022/09/01 03:47:20;;;;;;;3.95;2.53;;;30.80;99.90;;;;;;4208748;28;20044;-74
2022/09/01 03:49:27;;;;;;;5.15;2.47;;;30.90;99.90;;;;;;4211447;28;20036;-74
2022/09/01 03:51:37;;;;;;;3.55;2.30;;;30.90;99.90;;;;;;4212469;28;20090;-74
2022/09/01 03:53:44;;;;;;;3.97;2.08;;;30.90;99.90;;;;;;4211195;28;20110;-74
2022/09/01 03:55:51;;;;;;;2.70;2.20;;;30.90;99.90;;;;;;4210897;28;20403;-73
2022/09/01 03:58:03;;;;;;;2.83;2.45;;;31.00;99.90;;;;;;4212373;28;20139;-74
2022/09/01 04:00:19;;;;;;;2.65;2.45;;;30.90;99.90;;;;;;4195713;28;20044;-75
2022/09/01 04:02:28;;;;;;;4.10;2.30;;;31.00;99.90;;;;;;4211062;28;20486;-75
2022/09/01 04:04:36;;;;;;;3.35;2.30;;;31.20;99.90;;;;;;4210742;28;20056;-74
2022/09/01 04:06:42;;;;;;;3.42;2.28;;;31.00;99.90;;;;;;4210531;28;20052;-74
2022/09/01 04:08:47;;;;;;;4.57;2.47;;;30.90;99.90;;;;;;4211034;28;20078;-74
2022/09/01 04:10:55;;;;;;;3.20;2.25;;;31.00;99.90;;;;;;4210401;28;20052;-75
2022/09/01 04:13:01;;;;;;;2.55;1.98;;;31.10;99.90;;;;;;4210956;28;20139;-75
2022/09/01 04:15:07;;;;;;;3.30;2.40;;;31.10;99.90;;;;;;4227642;28;20409;-75
2022/09/01 04:19:35;;;;;;;3.78;2.20;;;31.40;99.90;;;;;;4210894;28;20040;-75
2022/09/01 04:21:40;;;;;;;2.40;1.90;;;31.50;99.90;;;;;;4194162;28;20079;-74
2022/09/01 04:23:49;;;;;;;3.05;2.00;;;31.60;99.90;;;;;;4210465;28;20047;-74
2022/09/01 04:26:07;;;;;;;4.47;2.03;;;31.60;99.90;;;;;;4201749;28;20052;-75
2022/09/01 04:28:21;;;;;;;3.05;2.28;;;31.60;99.90;;;;;;4188995;28;20600;-75
2022/09/01 04:30:30;;;;;;;2.60;2.10;;;31.70;99.90;;;;;;4221061;28;20872;-75
2022/09/01 04:32:37;;;;;;;7.13;1.88;;;31.70;99.90;;;;;;4205207;28;20052;-74
2022/09/01 04:34:41;;;;;;;4.50;2.10;;;31.70;99.70;;;;;;4194258;28;20048;-75
2022/09/01 04:36:53;;;;;;;2.65;2.13;;;31.70;98.80;;;;;;4193575;28;20040;-74
2022/09/01 04:38:59;;;;;;;2.38;1.90;;;31.70;99.90;;;;;;4208209;28;20044;-75
2022/09/01 04:41:08;;;;;;;1.98;1.75;;;31.70;99.30;;;;;;4210551;28;20479;-74
2022/09/01 04:43:18;;;;;;;4.03;2.10;;;31.80;99.30;;;;;;4205106;28;20035;-74
2022/09/01 04:45:26;;;;;;;2.30;1.92;;;31.90;99.00;;;;;;4208824;28;20737;-74
2022/09/01 04:47:31;;;;;;;3.80;2.10;;;31.90;99.30;;;;;;4194063;28;20041;-74
2022/09/01 04:49:44;;;;;;;2.78;1.98;;;32.00;99.20;;;;;;4192867;28;20044;-75
2022/09/01 04:51:50;;;;;;;3.10;2.35;;;32.00;98.80;;;;;;4193231;28;20131;-74
2022/09/01 04:53:57;;;;;;;4.68;2.20;;;32.00;98.10;;;;;;4193513;28;20132;-74
2022/09/01 04:56:11;;;;;;;4.00;2.28;;;32.10;98.50;;;;;;4193321;28;20071;-74
2022/09/01 04:58:20;;;;;;;2.22;2.00;;;32.10;98.70;;;;;;4210071;28;20048;-74
2022/09/01 05:00:26;;;;;;;4.05;2.08;;;32.10;98.40;;;;;;4193456;28;20048;-74
2022/09/01 05:02:36;;;;;;;2.55;1.90;;;32.10;98.30;;;;;;4177173;28;20055;-74
2022/09/01 05:04:45;;;;;;;2.60;1.92;;;32.10;98.50;;;;;;4192717;28;20036;-74
2022/09/01 05:06:58;;;;;;;2.75;2.40;;;32.10;98.20;;;;;;4194722;28;20152;-75
2022/09/01 05:09:10;;;;;;;2.80;2.28;;;32.20;98.20;;;;;;4214848;28;20042;-75
2022/09/01 05:11:27;;;;;;;3.05;2.30;;;32.30;98.40;;;;;;4210042;28;20085;-74
2022/09/01 05:13:41;;;;;;;3.53;2.30;;;32.20;99.20;;;;;;4194875;28;20132;-74
2022/09/01 05:16:05;;;;;;;2.83;2.00;;;32.20;98.30;;;;;;4210197;28;20071;-74
2022/09/01 05:18:26;;;;;;;3.00;2.08;;;32.00;98.50;;;;;;4210978;28;20091;-74
2022/09/01 05:20:33;;;;;;;2.70;2.00;;;32.10;98.70;;;;;;4208692;28;20475;-75
2022/09/01 05:22:39;;;;;;;2.40;1.85;;;32.10;97.80;;;;;;4210178;28;20071;-76
2022/09/01 05:24:44;;;;;;;3.30;2.13;;;32.30;97.90;;;;;;4209833;28;20044;-74
2022/09/01 05:26:51;;;;;;;3.92;1.70;;;32.20;96.40;;;;;;4194670;28;20048;-74
2022/09/01 05:29:03;;;;;;;2.42;1.90;;;32.20;97.10;;;;;;4193046;28;20052;-74
2022/09/01 05:31:08;;;;;;;2.45;1.70;;;32.30;97.70;;;;;;4193321;28;20406;-74
2022/09/01 05:33:15;;;;;;;3.55;2.20;;;32.30;98.20;;;;;;4193273;28;20049;-73
2022/09/01 05:35:28;;;;;;;3.70;2.08;;;32.20;98.40;;;;;;4193607;28;20902;-74
2022/09/01 05:37:36;;;;;;;2.63;2.05;;;32.30;97.90;;;;;;4196101;28;20420;-75
2022/09/01 05:39:41;;;;;;;2.20;1.88;;;32.50;98.30;;;;;;4205349;28;20048;-74
2022/09/01 05:41:49;;;;;;;3.38;1.90;;;32.50;97.60;;;;;;4212247;28;20039;-74
2022/09/01 05:43:54;;;;;;;4.00;1.85;;;32.50;97.30;;;;;;4212217;28;20040;-74
2022/09/01 05:46:07;;;;;;;5.03;1.85;;;32.30;97.70;;;;;;4212734;28;20437;-75
2022/09/01 05:48:22;;;;;;;3.10;1.98;;;32.30;98.00;;;;;;4213212;28;20040;-74
2022/09/01 05:50:27;;;;;;;2.05;1.83;;;32.50;98.40;;;;;;4212876;28;20056;-75
2022/09/01 05:52:32;;;;;;;3.17;2.08;;;32.70;98.10;;;;;;4213950;28;20048;-75
2022/09/01 05:54:40;;;;;;;2.30;1.83;;;32.80;97.70;;;;;;4213024;28;20093;-74
2022/09/01 05:56:44;;;;;;;1.70;1.60;;;32.70;96.90;;;;;;4230052;28;20060;-74
2022/09/01 05:58:56;;;;;;;3.83;2.00;;;32.70;97.60;;;;;;4229122;28;20075;-75
2022/09/01 06:01:25;;;;;;;3.35;1.80;;;32.80;97.60;;;;;;4177946;28;20159;-74
2022/09/01 06:03:31;;;;;;;2.65;2.00;;;32.60;97.80;;;;;;4161991;28;20128;-74
2022/09/01 06:05:51;;;;;;;2.25;1.77;;;32.70;97.50;;;;;;4161933;28;20571;-74
2022/09/01 06:07:59;;;;;;;2.65;1.80;;;32.70;97.30;;;;;;4161485;28;20128;-74
2022/09/01 06:10:05;;;;;;;2.45;1.80;;;32.70;97.60;;;;;;4178230;28;20041;-73
2022/09/01 06:12:16;;;;;;;3.15;1.77;;;32.80;98.10;;;;;;4161287;28;20038;-73
2022/09/01 06:14:23;;;;;;;3.42;1.60;;;32.90;97.70;;;;;;4177473;28;20119;-71
2022/09/01 06:16:29;;;;;;;7.70;1.83;;;33.00;96.80;;;;;;4161551;28;20077;-73
2022/09/01 06:18:35;;;;;;;3.80;1.75;;;33.10;96.40;;;;;;4161780;28;20045;-73
2022/09/01 06:20:45;;;;;;;1.88;1.60;;;33.20;96.30;;;;;;4177986;28;20052;-72
2022/09/01 06:22:52;;;;;;;2.90;1.60;;;33.20;96.40;;;;;;4161863;28;20045;-72
2022/09/01 06:24:58;;;;;;;3.35;1.60;;;33.10;96.60;;;;;;4177525;28;20476;-72
2022/09/01 06:27:09;;;;;;;1.70;1.60;;;33.20;96.70;;;;;;4145319;28;20543;-72
2022/09/01 06:29:14;;;;;;;2.00;1.50;;;33.30;96.50;;;;;;4145179;28;20049;-72
2022/09/01 06:31:25;;;;;;;2.53;1.60;;;33.40;96.40;;;;;;4130027;28;20081;-72
2022/09/01 06:33:29;;;;;;;4.57;1.70;;;33.50;95.50;;;;;;4144878;28;20401;-72
2022/09/01 06:35:35;;;;;;;2.00;1.50;;;33.50;95.40;;;;;;4145029;28;20061;-72
2022/09/01 06:37:47;;;;;;;2.28;1.98;;;33.40;95.00;;;;;;4145710;28;20053;-72
2022/09/01 06:40:17;;;;;;;2.63;1.75;;;33.30;95.10;;;;;;4209149;28;20042;-73
2022/09/01 06:42:30;;;;;;;2.90;1.63;;;33.40;95.40;;;;;;4213545;28;20058;-72
2022/09/01 06:44:37;;;;;;;2.95;1.77;;;33.40;95.80;;;;;;4212173;28;20052;-72
2022/09/01 06:46:47;;;;;;;3.25;1.67;;;33.50;95.60;;;;;;4211857;28;20076;-72
2022/09/01 06:48:53;;;;;;;5.32;2.22;;;33.50;95.30;;;;;;4213726;28;20048;-72
2022/09/01 06:51:08;;;;;;;1.77;1.45;;;33.60;94.90;;;;;;4212938;28;20048;-72
2022/09/01 06:53:21;;;;;;;1.85;1.50;;;33.50;94.10;;;;;;4212174;28;20150;-72
2022/09/01 06:55:45;;;;;;;2.75;1.40;;;33.40;94.70;;;;;;4228966;28;20130;-72
2022/09/01 06:57:50;;;;;;;4.47;1.58;;;33.50;94.80;;;;;;4195483;28;20123;-72
2022/09/01 07:00:25;;;;;;;2.60;1.60;;;33.50;95.00;;;;;;4211555;28;20452;-71
2022/09/01 07:02:32;;;;;;;1.55;1.45;;;33.70;95.00;;;;;;4213474;28;20291;-71
2022/09/01 07:04:52;;;;;;;1.95;1.40;;;33.60;94.00;;;;;;4211895;28;20137;-71
2022/09/01 07:07:03;;;;;;;2.25;1.50;;;33.70;94.50;;;;;;4211412;28;20545;-72
2022/09/01 07:09:30;;;;;;;2.72;1.70;;;33.80;94.90;;;;;;4213089;28;20052;-71
2022/09/01 07:12:02;;;;;;;2.53;1.63;;;33.80;94.60;;;;;;4228828;28;20120;-72
2022/09/01 07:14:30;;;;;;;2.70;1.85;;;34.00;94.60;;;;;;4211508;28;20059;-72
2022/09/01 07:16:39;;;;;;;1.70;1.48;;;34.10;94.20;;;;;;4211466;28;20044;-72
2022/09/01 07:18:59;;;;;;;1.92;1.65;;;34.20;94.60;;;;;;4228664;28;20066;-74
2022/09/01 07:21:09;;;;;;;2.38;1.63;;;34.30;94.10;;;;;;4228599;28;20043;-73
2022/09/01 07:23:37;;;;;;;2.20;1.50;;;34.30;93.70;;;;;;4211354;28;20094;-74
2022/09/01 07:26:05;;;;;;;3.22;2.10;;;34.40;93.40;;;;;;4200746;28;20158;-75
2022/09/01 07:28:17;;;;;;;1.85;1.45;;;34.10;92.60;;;;;;4194850;28;20051;-74
2022/09/01 07:30:27;;;;;;;1.60;1.50;;;34.10;93.30;;;;;;4194919;28;20086;-75
2022/09/01 07:32:34;;;;;;;2.50;1.70;;;34.20;93.10;;;;;;4194273;28;20094;-73
2022/09/01 07:35:06;;;;;;;2.20;1.70;;;34.30;93.10;;;;;;4194587;28;20068;-74
2022/09/01 07:37:17;;;;;;;2.10;1.48;;;34.40;92.90;;;;;;4194407;28;20127;-75
2022/09/01 07:39:45;;;;;;;1.63;1.40;;;34.50;93.10;;;;;;4204388;28;20149;-74
2022/09/01 07:42:33;;;;;;;2.15;1.55;;;34.50;93.30;;;;;;4176741;28;20079;-75
2022/09/01 07:45:11;;;;;;;1.83;1.50;;;34.60;93.60;;;;;;4176468;28;20051;-73
2022/09/01 07:47:36;;;;;;;2.15;1.38;;;34.50;94.00;;;;;;4174240;28;20091;-74
2022/09/01 07:49:58;;;;;;;2.70;1.40;;;34.50;93.70;;;;;;4193115;28;20048;-72
2022/09/01 07:52:24;;;;;;;3.38;1.70;;;34.60;93.90;;;;;;4146745;28;20543;-73
2022/09/01 07:54:36;;;;;;;1.80;1.50;;;34.70;94.10;;;;;;4160253;28;20508;-73
2022/09/01 07:56:40;;;;;;;1.98;1.50;;;34.80;93.80;;;;;;4192746;28;20052;-74
2022/09/01 07:58:47;;;;;;;1.95;1.38;;;34.80;93.70;;;;;;4175868;28;20056;-73
2022/09/01 08:01:01;;;;;;;2.10;1.50;;;34.90;93.40;;;;;;4193086;28;20060;-73
2022/09/01 08:03:06;;;;;;;2.08;1.73;;;34.90;93.00;;;;;;4160117;28;20061;-73
2022/09/01 08:05:14;;;;;;;3.42;2.08;;;34.90;93.00;;;;;;4176062;28;20235;-75
2022/09/01 08:07:21;;;;;;;1.88;1.63;;;34.90;93.20;;;;;;4159961;28;20052;-73
2022/09/01 08:09:26;;;;;;;4.38;1.60;;;34.90;92.60;;;;;;4160100;28;20042;-74
2022/09/01 08:11:42;;;;;;;1.75;1.60;;;34.90;92.80;;;;;;4159831;28;20041;-73
2022/09/01 08:14:12;;;;;;;2.10;1.50;;;34.70;92.80;;;;;;4204817;28;20739;-73
2022/09/01 08:16:16;;;;;;;1.92;1.50;;;34.60;93.00;;;;;;4210633;28;20446;-73
2022/09/01 08:18:24;;;;;;;2.88;1.95;;;34.60;93.20;;;;;;4210575;28;20032;-73
2022/09/01 08:20:33;;;;;;;1.80;1.55;;;34.80;93.30;;;;;;4176048;28;20144;-73
2022/09/01 08:22:53;;;;;;;1.85;1.40;;;34.80;93.30;;;;;;4210610;28;20603;-75
2022/09/01 08:25:08;;;;;;;2.08;1.45;;;34.90;93.10;;;;;;4208458;28;20043;-72
2022/09/01 08:27:14;;;;;;;3.42;1.60;;;34.90;92.70;;;;;;4193980;28;20045;-74
2022/09/01 08:29:19;;;;;;;1.80;1.60;;;35.00;92.50;;;;;;4193885;28;20051;-73
2022/09/01 08:31:25;;;;;;;2.40;1.50;;;35.00;92.60;;;;;;4192750;28;20107;-73
2022/09/01 08:33:38;;;;;;;1.88;1.60;;;35.00;92.40;;;;;;4193318;28;20036;-73
2022/09/01 08:35:45;;;;;;;2.17;1.90;;;35.00;92.70;;;;;;4177296;28;20049;-74
2022/09/01 08:37:51;;;;;;;2.45;1.90;;;35.00;93.60;;;;;;4193542;28;20431;-73
2022/09/01 08:39:59;;;;;;;2.20;1.83;;;35.00;93.90;;;;;;4205963;28;20055;-74
2022/09/01 08:42:17;;;;;;;4.22;1.73;;;34.90;93.90;;;;;;4207462;28;20040;-73
2022/09/01 08:44:54;;;;;;;3.30;1.80;;;34.90;94.00;;;;;;4210415;28;20040;-73
2022/09/01 08:47:03;;;;;;;2.75;1.92;;;35.00;94.30;;;;;;4193857;28;20207;-77
2022/09/01 08:49:21;;;;;;;4.43;1.98;;;34.80;94.70;;;;;;4211640;28;20044;-74
2022/09/01 08:51:56;;;;;;;4.32;1.92;;;34.70;94.90;;;;;;4211458;28;20395;-74
2022/09/01 08:54:26;;;;;;;4.97;2.30;;;34.60;95.00;;;;;;4210686;28;20063;-76
2022/09/01 08:56:36;;;;;;;6.57;2.42;;;34.50;95.10;;;;;;4210213;28;20040;-75
2022/09/01 08:58:41;;;;;;;4.20;1.98;;;34.40;95.10;;;;;;4210287;28;20504;-76
2022/09/01 09:01:03;;;;;;;5.18;1.83;;;34.40;95.10;;;;;;4211541;28;20051;-76
2022/09/01 09:03:26;;;;;;;5.00;2.10;;;34.20;95.10;;;;;;4211365;28;20070;-76
2022/09/01 09:06:06;;;;;;;6.80;1.88;;;34.20;94.60;;;;;;4211336;28;20044;-75
2022/09/01 09:08:29;;;;;;;4.50;3.05;;;34.10;95.10;;;;;;4211607;28;20051;-76
2022/09/01 09:10:51;;;;;;;6.30;2.78;;;34.00;95.30;;;;;;4193174;28;20055;-76
2022/09/01 09:13:15;;;;;;;3.55;2.47;;;33.90;95.40;;;;;;4194146;28;20151;-76
2022/09/01 09:15:53;;;;;;;3.05;2.08;;;33.90;95.50;;;;;;4209333;28;20066;-77
2022/09/01 09:18:42;;;;;;;8.65;3.50;;;33.80;95.50;;;;;;4197255;28;20604;-76
2022/09/01 09:21:35;;;;;;;4.72;3.42;;;33.60;95.30;;;;;;4210754;28;20470;-75
2022/09/01 09:23:42;;;;;;;4.55;2.65;;;33.30;95.60;;;;;;4209312;28;20048;-75
2022/09/01 09:25:47;;;;;;;4.28;2.85;;;33.40;94.60;;;;;;4203961;28;20051;-73
2022/09/01 09:27:57;;;;;;;3.13;2.13;;;33.30;94.50;;;;;;4194685;28;20052;-72
2022/09/01 09:30:13;;;;;;;3.45;2.00;;;33.30;93.90;;;;;;4193718;28;20553;-71
2022/09/01 09:32:18;;;;;;;;;;;33.10;94.20;;;;;;4193529;28;20098;-70
2022/09/01 09:34:38;;;;;;;3.65;2.15;;;33.20;94.60;;;;;;4194294;28;20027;-73
2022/09/01 09:36:46;;;;;;;3.85;1.92;;;33.20;95.00;;;;;;4193856;28;20156;-72
2022/09/01 09:39:12;;;;;;;3.90;2.33;;;33.30;95.20;;;;;;4200986;28;20363;-70
2022/09/01 09:41:20;;;;;;;4.72;2.10;;;33.30;95.30;;;;;;4208377;28;20467;-71
2022/09/01 09:43:50;;;;;;;2.70;2.10;;;33.30;95.30;;;;;;4207982;28;20040;-73
2022/09/01 09:46:20;;;;;;;3.72;2.50;;;33.30;95.30;;;;;;4207876;28;20753;-72
2022/09/01 09:48:30;;;;;;;5.22;2.90;;;33.30;95.50;;;;;;4207063;28;20127;-74
2022/09/01 09:50:44;;;;;;;10.40;3.45;;;33.30;95.50;;;;;;4210201;28;20052;-73
2022/09/01 09:52:51;;;;;;;6.20;3.53;;;33.20;95.60;;;;;;4240558;28;20035;-71
2022/09/01 09:55:05;;;;;;;7.00;3.70;;;33.20;95.90;;;;;;4190042;28;20048;-72
2022/09/01 09:57:15;;;;;;;7.03;3.72;;;33.10;96.10;;;;;;4207797;28;20040;-72
2022/09/01 09:59:29;;;;;;;10.38;5.55;;;33.20;96.40;;;;;;4208026;28;20716;-71
2022/09/01 10:02:33;;;;;;;10.38;5.75;;;33.10;96.30;;;;;;4172780;28;20057;-70
2022/09/01 10:04:37;;;;;;;9.95;5.20;;;33.20;96.40;;;;;;4171828;28;20064;-72
2022/09/01 10:06:44;;;;;;;7.38;4.72;;;33.10;96.80;;;;;;4139886;28;20668;-71
2022/09/01 10:08:51;;;;;;;8.43;4.50;;;33.00;97.20;;;;;;4171928;28;20746;-71
2022/09/01 10:10:55;;;;;;;7.95;4.07;;;33.00;97.40;;;;;;4172998;28;20499;-72
2022/09/01 10:13:02;;;;;;;5.53;2.92;;;32.70;98.10;;;;;;4140319;28;20496;-70
2022/09/01 10:15:10;;;;;;;5.28;3.33;;;32.40;99.20;;;;;;4172044;28;20607;-69
2022/09/01 10:17:37;;;;;;;4.40;2.60;;;32.20;98.80;;;;;;4171677;28;20531;-71
2022/09/01 10:20:06;;;;;;;3.65;2.10;;;31.90;97.30;;;;;;4139817;28;20053;-70
2022/09/01 10:22:15;;;;;;;4.05;2.60;;;31.80;97.20;;;;;;4174666;28;20045;-70
2022/09/01 10:24:34;;;;;;;2.80;2.50;;;31.80;97.10;;;;;;4174728;28;20133;-70
2022/09/01 10:26:48;;;;;;;4.65;2.28;;;31.80;96.60;;;;;;4175932;28;20037;-71
2022/09/01 10:29:28;;;;;;;3.53;2.10;;;31.40;96.00;;;;;;4176942;28;20045;-70
2022/09/01 10:31:43;;;;;;;6.43;2.50;;;31.30;96.50;;;;;;4177613;28;20059;-68
2022/09/01 10:33:49;;;;;;;3.15;2.30;;;31.40;96.20;;;;;;4203245;28;20116;-71
2022/09/01 10:35:59;;;;;;;5.60;2.05;;;31.10;96.00;;;;;;4212517;28;20522;-71
2022/09/01 10:38:08;;;;;;;5.32;2.03;;;31.20;95.80;;;;;;4211514;28;20446;-74
2022/09/01 10:40:39;;;;;;;5.15;2.08;;;31.30;95.60;;;;;;4210871;28;20068;-71
2022/09/01 10:42:53;;;;;;;4.30;1.70;;;30.80;95.30;;;;;;4160242;28;20050;-71
2022/09/01 10:45:01;;;;;;;3.40;2.45;;;30.50;95.20;;;;;;4212849;28;20768;-71
2022/09/01 10:47:25;;;;;;;3.60;1.90;;;30.50;95.80;;;;;;4211473;28;20064;-73
2022/09/01 10:49:57;;;;;;;3.85;2.00;;;30.30;95.90;;;;;;4210837;28;20062;-71
2022/09/01 10:52:04;;;;;;;5.28;2.30;;;30.40;95.80;;;;;;4212082;28;20069;-72
2022/09/01 10:54:40;;;;;;;3.17;1.98;;;30.60;95.50;;;;;;4211064;28;20047;-71
2022/09/01 10:57:02;;;;;;;6.68;2.10;;;30.60;95.60;;;;;;4209823;28;20052;-73
2022/09/01 10:59:28;;;;;;;3.15;1.70;;;30.60;95.20;;;;;;4208464;28;20036;-72
2022/09/01 11:02:22;;;;;;;3.40;1.90;;;30.60;94.50;;;;;;4209650;28;20047;-71
2022/09/01 11:05:10;;;;;;;2.28;1.38;;;30.50;95.00;;;;;;4209119;28;20059;-71
2022/09/01 11:07:37;;;;;;;2.50;1.83;;;30.60;95.10;;;;;;4208449;28;20082;-72
2022/09/01 11:10:35;;;;;;;5.30;2.20;;;30.90;95.00;;;;;;4209216;28;20136;-69
2022/09/01 11:12:51;;;;;;;5.55;2.13;;;31.10;94.60;;;;;;4208465;28;20071;-71
2022/09/01 11:15:01;;;;;;;3.85;2.20;;;31.10;94.50;;;;;;4209610;28;20052;-69
2022/09/01 11:17:33;;;;;;;6.15;2.42;;;31.20;94.40;;;;;;4208739;28;20058;-71
2022/09/01 11:19:54;;;;;;;7.25;2.33;;;31.30;94.80;;;;;;4188363;28;20055;-70
2022/09/01 11:22:25;;;;;;;3.10;1.85;;;31.40;94.70;;;;;;4207066;28;20551;-70
2022/09/01 11:24:52;;;;;;;2.70;1.80;;;31.40;94.60;;;;;;4208708;28;20039;-69
2022/09/01 11:27:52;;;;;;;3.17;1.63;;;31.40;94.30;;;;;;4182029;28;20386;-70
2022/09/01 11:30:01;;;;;;;;;;;31.40;94.50;;;;;;4209089;28;20048;-71
2022/09/01 11:32:07;;;;;;;5.35;1.80;;;31.30;95.10;;;;;;4205237;28;19928;-71
2022/09/01 11:34:18;;;;;;;4.82;1.90;;;31.30;95.60;;;;;;4208932;28;20142;-72
2022/09/01 11:36:37;;;;;;;5.35;2.60;;;31.20;95.60;;;;;;4209221;28;20130;-70